createdAt,value
2019-04-01T00:01:52.639Z,6.70
2019-04-01T00:04:20.738Z,6.10
2019-04-01T00:06:48.636Z,6.33
2019-04-01T00:09:16.411Z,5.57
2019-04-01T00:11:44.085Z,6.17
2019-04-01T00:14:11.630Z,6.27
2019-04-01T00:16:39.175Z,5.63
2019-04-01T00:19:06.333Z,6.00
2019-04-01T00:21:33.815Z,5.87
2019-04-01T00:24:01.006Z,5.33
2019-04-01T00:26:28.736Z,5.00
2019-04-01T00:28:55.943Z,5.37
2019-04-01T00:31:23.257Z,5.57
2019-04-01T00:33:50.979Z,5.50
2019-04-01T00:36:18.231Z,5.73
2019-04-01T00:38:46.047Z,5.57
2019-04-01T00:41:13.559Z,5.90
2019-04-01T00:44:00.385Z,5.50
2019-04-01T00:46:28.156Z,5.03
2019-04-01T00:48:55.704Z,5.47
2019-04-01T00:51:23.593Z,4.90
2019-04-01T00:53:50.902Z,5.80
2019-04-01T00:56:18.771Z,4.73
2019-04-01T00:58:45.979Z,5.07
2019-04-01T01:01:13.183Z,5.43
2019-04-01T01:03:40.932Z,5.40
2019-04-01T01:06:08.140Z,5.10
2019-04-01T01:08:35.318Z,6.00
2019-04-01T01:11:03.150Z,5.70
2019-04-01T01:13:30.460Z,5.23
2019-04-01T01:16:04.147Z,5.80
2019-04-01T01:18:31.360Z,6.13
2019-04-01T01:20:58.788Z,5.00
2019-04-01T01:23:26.089Z,5.47
2019-04-01T01:25:53.268Z,5.80
2019-04-01T01:28:20.491Z,5.60
2019-04-01T01:30:47.989Z,5.07
2019-04-01T01:33:15.590Z,4.97
2019-04-01T01:35:43.063Z,6.00
2019-04-01T01:38:10.759Z,6.70
2019-04-01T01:40:38.550Z,6.80
2019-04-01T01:43:05.970Z,6.70
2019-04-01T01:45:33.182Z,6.60
2019-04-01T01:48:00.669Z,5.87
2019-04-01T01:50:28.208Z,5.90
2019-04-01T01:52:55.610Z,6.00
2019-04-01T01:55:23.145Z,6.00
2019-04-01T01:57:50.480Z,5.17
2019-04-01T02:00:18.270Z,5.57
2019-04-01T02:02:46.063Z,6.00
2019-04-01T02:05:13.600Z,5.03
2019-04-01T02:07:41.223Z,6.57
2019-04-01T02:10:08.771Z,6.30
2019-04-01T02:12:36.061Z,5.73
2019-04-01T02:15:04.017Z,6.13
2019-04-01T02:17:31.626Z,6.47
2019-04-01T02:19:58.844Z,6.10
2019-04-01T02:22:25.998Z,6.03
2019-04-01T02:24:53.186Z,5.63
2019-04-01T02:27:21.195Z,5.80
2019-04-01T02:29:48.410Z,5.90
2019-04-01T02:32:16.172Z,6.03
2019-04-01T02:34:43.970Z,5.97
2019-04-01T02:37:11.236Z,5.63
2019-04-01T02:39:38.781Z,5.53
2019-04-01T02:42:06.349Z,5.80
2019-04-01T02:44:34.058Z,5.00
2019-04-01T02:47:01.396Z,5.53
2019-04-01T02:49:28.969Z,4.80
2019-04-01T02:51:56.866Z,6.07
2019-04-01T02:54:35.155Z,5.50
2019-04-01T02:57:02.577Z,5.30
2019-04-01T02:59:29.771Z,5.50
2019-04-01T03:01:57.793Z,5.37
2019-04-01T03:04:24.985Z,5.40
2019-04-01T03:06:52.692Z,5.47
2019-04-01T03:09:20.243Z,6.63
2019-04-01T03:11:47.516Z,5.10
2019-04-01T03:14:14.796Z,5.03
2019-04-01T03:16:42.018Z,5.37
2019-04-01T03:19:09.464Z,5.23
2019-04-01T03:21:36.871Z,5.67
2019-04-01T03:24:04.079Z,5.63
2019-04-01T03:26:31.606Z,5.50
2019-04-01T03:28:59.082Z,5.27
2019-04-01T03:31:26.609Z,5.57
2019-04-01T03:33:54.342Z,5.47
2019-04-01T03:36:22.026Z,5.57
2019-04-01T03:38:49.317Z,4.83
2019-04-01T03:41:16.763Z,5.07
2019-04-01T03:43:44.000Z,4.97
2019-04-01T03:46:11.414Z,5.37
2019-04-01T03:48:39.028Z,5.77
2019-04-01T03:51:06.739Z,5.47
2019-04-01T03:53:34.344Z,5.37
2019-04-01T03:56:01.832Z,5.30
2019-04-01T03:58:29.025Z,5.17
2019-04-01T04:00:56.182Z,5.50
2019-04-01T04:03:23.748Z,5.50
2019-04-01T04:05:51.885Z,5.43
2019-04-01T04:08:19.374Z,5.10
2019-04-01T04:10:46.823Z,5.30
2019-04-01T04:13:13.983Z,5.10
2019-04-01T04:15:41.214Z,5.30
2019-04-01T04:18:08.642Z,5.27
2019-04-01T04:20:36.096Z,4.90
2019-04-01T04:23:03.276Z,5.30
2019-04-01T04:25:30.548Z,5.73
2019-04-01T04:27:58.112Z,4.97
2019-04-01T04:30:25.666Z,5.03
2019-04-01T04:32:53.107Z,5.23
2019-04-01T04:35:20.270Z,4.53
2019-04-01T04:37:47.484Z,4.67
2019-04-01T04:40:15.694Z,4.93
2019-04-01T04:42:42.898Z,5.67
2019-04-01T04:45:10.182Z,5.70
2019-04-01T04:47:37.921Z,5.37
2019-04-01T04:50:05.376Z,5.53
2019-04-01T04:52:32.782Z,4.87
2019-04-01T04:55:00.052Z,4.90
2019-04-01T04:57:27.356Z,4.77
2019-04-01T04:59:55.439Z,4.60
2019-04-01T05:02:24.561Z,4.97
2019-04-01T05:04:51.945Z,4.73
2019-04-01T05:07:19.210Z,4.47
2019-04-01T05:09:46.662Z,4.70
2019-04-01T05:12:14.224Z,4.90
2019-04-01T05:14:41.527Z,4.70
2019-04-01T05:17:09.131Z,4.37
2019-04-01T05:19:36.956Z,4.73
2019-04-01T05:22:04.274Z,4.53
2019-04-01T05:24:32.126Z,4.50
2019-04-01T05:27:01.447Z,5.27
2019-04-01T05:29:29.896Z,5.13
2019-04-01T05:31:58.243Z,5.53
2019-04-01T05:34:27.975Z,4.97
2019-04-01T05:36:55.670Z,5.10
2019-04-01T05:39:22.848Z,5.77
2019-04-01T05:41:50.400Z,5.17
2019-04-01T05:44:17.976Z,5.73
2019-04-01T05:46:45.668Z,5.67
2019-04-01T05:49:13.086Z,5.43
2019-04-01T05:51:40.542Z,6.50
2019-04-01T05:54:07.778Z,6.43
2019-04-01T05:56:35.204Z,6.43
2019-04-01T05:59:02.413Z,6.13
2019-04-01T06:01:38.955Z,6.17
2019-04-01T06:04:06.165Z,5.77
2019-04-01T06:06:33.333Z,7.37
2019-04-01T06:09:00.620Z,7.37
2019-04-01T06:11:27.820Z,5.80
2019-04-01T06:13:55.498Z,5.70
2019-04-01T06:16:23.223Z,5.97
2019-04-01T06:18:50.423Z,5.63
2019-04-01T06:21:17.842Z,5.70
2019-04-01T06:23:45.044Z,5.50
2019-04-01T06:26:12.323Z,5.87
2019-04-01T06:28:40.067Z,5.80
2019-04-01T06:31:07.247Z,5.83
2019-04-01T06:33:34.751Z,5.27
2019-04-01T06:36:01.930Z,5.60
2019-04-01T06:38:29.635Z,5.83
2019-04-01T06:40:56.847Z,5.70
2019-04-01T06:43:24.418Z,5.80
2019-04-01T06:45:51.593Z,5.67
2019-04-01T06:48:18.836Z,5.17
2019-04-01T06:50:46.308Z,5.30
2019-04-01T06:53:13.445Z,5.60
2019-04-01T06:55:40.921Z,5.67
2019-04-01T06:58:11.714Z,6.30
2019-04-01T07:00:37.450Z,5.90
2019-04-01T07:03:04.883Z,5.73
2019-04-01T07:05:32.094Z,6.10
2019-04-01T07:07:59.394Z,6.20
2019-04-01T07:10:26.623Z,6.50
2019-04-01T07:12:53.836Z,6.50
2019-04-01T07:15:21.057Z,6.03
2019-04-01T07:17:48.813Z,5.77
2019-04-01T07:20:15.985Z,6.77
2019-04-01T07:22:43.459Z,7.30
2019-04-01T07:25:10.683Z,8.07
2019-04-01T07:27:38.086Z,6.70
2019-04-01T07:30:05.986Z,6.23
2019-04-01T07:32:33.452Z,6.60
2019-04-01T07:35:01.466Z,5.80
2019-04-01T07:37:28.928Z,6.30
2019-04-01T07:39:56.910Z,6.40
2019-04-01T07:42:24.051Z,7.10
2019-04-01T07:44:51.373Z,6.57
2019-04-01T07:47:18.632Z,7.10
2019-04-01T07:49:46.060Z,6.23
2019-04-01T07:52:13.958Z,6.17
2019-04-01T07:54:41.182Z,6.30
2019-04-01T07:57:08.469Z,6.40
2019-04-01T07:59:36.043Z,6.03
2019-04-01T08:02:03.324Z,6.43
2019-04-01T08:04:30.917Z,6.07
2019-04-01T08:06:58.434Z,5.90
2019-04-01T08:09:25.875Z,6.70
2019-04-01T08:11:53.283Z,6.17
2019-04-01T08:14:20.723Z,7.03
2019-04-01T08:16:48.469Z,5.60
2019-04-01T08:19:16.019Z,6.03
2019-04-01T08:21:43.454Z,6.50
2019-04-01T08:24:10.646Z,5.57
2019-04-01T08:26:38.366Z,6.00
2019-04-01T08:29:05.526Z,6.67
2019-04-01T08:31:32.734Z,6.17
2019-04-01T08:34:00.026Z,6.43
2019-04-01T08:36:27.307Z,5.73
2019-04-01T08:38:55.594Z,5.77
2019-04-01T08:41:22.933Z,5.87
2019-04-01T08:43:50.127Z,6.28
2019-04-01T08:46:17.378Z,5.80
2019-04-01T08:48:45.038Z,5.85
2019-04-01T08:51:12.505Z,6.60
2019-04-01T08:53:39.727Z,6.22
2019-04-01T08:56:07.090Z,5.65
2019-04-01T08:58:34.570Z,6.08
2019-04-01T09:01:02.160Z,6.08
2019-04-01T09:03:29.381Z,6.25
2019-04-01T09:05:57.140Z,6.58
2019-04-01T09:08:25.971Z,6.65
2019-04-01T09:10:53.174Z,6.45
2019-04-01T09:13:20.634Z,6.33
2019-04-01T09:15:48.671Z,6.15
2019-04-01T09:18:15.951Z,7.08
2019-04-01T09:20:43.383Z,8.03
2019-04-01T09:23:10.853Z,7.53
2019-04-01T09:25:38.010Z,6.87
2019-04-01T09:28:05.559Z,6.97
2019-04-01T09:30:32.855Z,6.78
2019-04-01T09:33:00.301Z,7.37
2019-04-01T09:35:27.998Z,7.20
2019-04-01T09:37:55.450Z,7.53
2019-04-01T09:40:22.861Z,7.60
2019-04-01T09:42:50.362Z,8.05
2019-04-01T09:45:17.559Z,8.63
2019-04-01T09:47:45.246Z,8.50
2019-04-01T09:50:12.902Z,8.15
2019-04-01T09:52:40.099Z,7.70
2019-04-01T09:55:08.075Z,7.22
2019-04-01T09:57:35.352Z,7.10
2019-04-01T10:00:03.712Z,8.30
2019-04-01T10:02:32.405Z,7.83
2019-04-01T10:04:59.666Z,7.78
2019-04-01T10:07:27.245Z,8.38
2019-04-01T10:09:55.139Z,9.08
2019-04-01T10:12:22.592Z,8.93
2019-04-01T10:14:50.046Z,8.53
2019-04-01T10:17:17.458Z,8.25
2019-04-01T10:19:44.856Z,8.33
2019-04-01T10:22:12.282Z,8.40
2019-04-01T10:24:39.580Z,7.83
2019-04-01T10:27:07.007Z,8.28
2019-04-01T10:29:34.466Z,8.98
2019-04-01T10:32:01.657Z,8.68
2019-04-01T10:34:28.871Z,8.68
2019-04-01T10:36:56.082Z,8.45
2019-04-01T10:39:23.763Z,8.65
2019-04-01T10:41:51.767Z,9.35
2019-04-01T10:44:18.980Z,9.48
2019-04-01T10:46:46.497Z,8.43
2019-04-01T10:49:14.064Z,8.00
2019-04-01T10:51:41.329Z,9.48
2019-04-01T10:54:08.682Z,9.78
2019-04-01T10:56:36.458Z,10.25
2019-04-01T10:59:03.675Z,8.70
2019-04-01T11:01:31.192Z,9.75
2019-04-01T11:03:58.731Z,8.88
2019-04-01T11:06:26.040Z,10.80
2019-04-01T11:08:53.246Z,10.30
2019-04-01T11:11:20.535Z,9.55
2019-04-01T11:13:51.446Z,10.45
2019-04-01T11:16:17.192Z,10.10
2019-04-01T11:18:45.261Z,10.15
2019-04-01T11:21:12.863Z,11.83
2019-04-01T11:23:40.302Z,11.05
2019-04-01T11:26:07.735Z,10.48
2019-04-01T11:28:35.661Z,10.58
2019-04-01T11:31:02.949Z,10.72
2019-04-01T11:33:30.624Z,11.05
2019-04-01T11:35:58.017Z,12.13
2019-04-01T11:38:25.310Z,10.88
2019-04-01T11:40:52.796Z,11.43
2019-04-01T11:43:20.634Z,11.97
2019-04-01T11:45:48.104Z,12.13
2019-04-01T11:48:15.688Z,11.75
2019-04-01T11:50:42.970Z,10.95
2019-04-01T11:53:10.434Z,12.13
2019-04-01T11:55:37.731Z,11.80
2019-04-01T11:58:05.155Z,10.82
2019-04-01T12:00:32.686Z,10.93
2019-04-01T12:02:59.926Z,12.75
2019-04-01T12:05:27.414Z,12.50
2019-04-01T12:07:54.839Z,13.10
2019-04-01T12:10:22.288Z,13.32
2019-04-01T12:12:50.063Z,12.40
2019-04-01T12:15:17.518Z,10.60
2019-04-01T12:17:44.767Z,12.18
2019-04-01T12:20:12.524Z,12.78
2019-04-01T12:22:41.240Z,11.88
2019-04-01T12:25:09.603Z,12.00
2019-04-01T12:27:36.893Z,12.23
2019-04-01T12:30:04.519Z,12.07
2019-04-01T12:32:32.308Z,12.75
2019-04-01T12:34:59.494Z,13.88
2019-04-01T12:37:29.907Z,12.28
2019-04-01T12:39:56.279Z,12.60
2019-04-01T12:42:24.046Z,12.07
2019-04-01T12:44:51.535Z,12.30
2019-04-01T12:47:18.994Z,12.47
2019-04-01T12:49:46.422Z,11.90
2019-04-01T12:52:13.973Z,13.70
2019-04-01T12:54:41.199Z,12.90
2019-04-01T12:57:08.722Z,12.73
2019-04-01T12:59:36.700Z,12.58
2019-04-01T13:02:04.260Z,12.13
2019-04-01T13:04:36.144Z,12.60
2019-04-01T13:07:05.943Z,10.80
2019-04-01T13:09:33.150Z,11.05
2019-04-01T13:12:00.472Z,10.45
2019-04-01T13:14:28.027Z,12.43
2019-04-01T13:16:55.236Z,12.13
2019-04-01T13:19:22.691Z,11.68
2019-04-01T13:21:49.887Z,12.53
2019-04-01T13:24:17.607Z,12.93
2019-04-01T13:26:45.113Z,12.18
2019-04-01T13:29:12.767Z,11.40
2019-04-01T13:31:40.768Z,13.13
2019-04-01T13:34:08.406Z,12.40
2019-04-01T13:36:38.944Z,11.73
2019-04-01T13:39:06.702Z,11.95
2019-04-01T13:41:42.424Z,11.75
2019-04-01T13:44:03.288Z,11.93
2019-04-01T13:46:30.681Z,11.57
2019-04-01T13:49:01.669Z,11.73
2019-04-01T13:51:27.526Z,12.65
2019-04-01T13:54:08.063Z,11.75
2019-04-01T13:56:24.248Z,13.32
2019-04-01T13:58:51.775Z,12.45
2019-04-01T14:01:18.954Z,12.33
2019-04-01T14:03:46.599Z,11.18
2019-04-01T14:06:13.789Z,11.60
2019-04-01T14:08:40.969Z,10.70
2019-04-01T14:11:08.245Z,9.60
2019-04-01T14:13:35.909Z,9.98
2019-04-01T14:16:03.102Z,10.78
2019-04-01T14:18:30.505Z,10.68
2019-04-01T14:20:58.010Z,11.53
2019-04-01T14:23:25.499Z,11.70
2019-04-01T14:25:52.869Z,11.75
2019-04-01T14:28:20.330Z,11.48
2019-04-01T14:30:47.522Z,12.70
2019-04-01T14:33:14.808Z,11.43
2019-04-01T14:35:44.999Z,10.63
2019-04-01T14:38:11.547Z,12.82
2019-04-01T14:40:38.760Z,11.68
2019-04-01T14:43:06.699Z,10.55
2019-04-01T14:45:34.665Z,10.70
2019-04-01T14:48:03.415Z,11.90
2019-04-01T14:50:30.599Z,11.60
2019-04-01T14:52:58.132Z,11.60
2019-04-01T14:55:25.604Z,12.35
2019-04-01T14:57:54.863Z,11.55
2019-04-01T15:00:22.364Z,12.18
2019-04-01T15:02:50.351Z,11.35
2019-04-01T15:05:17.802Z,11.68
2019-04-01T15:07:45.259Z,11.08
2019-04-01T15:10:14.302Z,12.70
2019-04-01T15:12:42.855Z,11.12
2019-04-01T15:15:10.155Z,11.45
2019-04-01T15:17:37.371Z,11.22
2019-04-01T15:20:05.163Z,10.08
2019-04-01T15:22:32.595Z,11.35
2019-04-01T15:25:00.156Z,11.68
2019-04-01T15:27:27.503Z,10.72
2019-04-01T15:29:54.991Z,11.83
2019-04-01T15:32:23.048Z,11.20
2019-04-01T15:34:50.339Z,10.45
2019-04-01T15:37:17.675Z,10.53
2019-04-01T15:39:47.172Z,11.00
2019-04-01T15:42:14.915Z,10.60
2019-04-01T15:44:42.086Z,9.88
2019-04-01T15:47:09.787Z,10.03
2019-04-01T15:49:37.240Z,9.08
2019-04-01T15:52:04.887Z,9.75
2019-04-01T15:54:33.297Z,9.68
2019-04-01T15:57:00.760Z,9.83
2019-04-01T15:59:28.503Z,10.03
2019-04-01T16:01:55.759Z,10.10
2019-04-01T16:04:23.447Z,10.43
2019-04-01T16:06:50.811Z,10.98
2019-04-01T16:09:18.247Z,10.78
2019-04-01T16:11:47.193Z,9.68
2019-04-01T16:14:19.322Z,10.25
2019-04-01T16:16:49.545Z,10.32
2019-04-01T16:19:16.766Z,10.10
2019-04-01T16:21:44.350Z,10.63
2019-04-01T16:24:11.792Z,9.85
2019-04-01T16:26:38.978Z,10.50
2019-04-01T16:29:06.350Z,11.08
2019-04-01T16:31:33.586Z,12.05
2019-04-01T16:34:01.003Z,10.55
2019-04-01T16:36:28.217Z,10.53
2019-04-01T16:38:55.651Z,9.35
2019-04-01T16:41:22.869Z,10.18
2019-04-01T16:43:50.036Z,9.25
2019-04-01T16:46:17.589Z,9.73
2019-04-01T16:48:46.459Z,8.83
2019-04-01T16:51:14.079Z,9.23
2019-04-01T16:53:44.214Z,8.65
2019-04-01T16:56:10.954Z,9.95
2019-04-01T16:58:38.473Z,8.63
2019-04-01T17:01:06.178Z,9.18
2019-04-01T17:03:33.779Z,8.83
2019-04-01T17:06:01.227Z,10.32
2019-04-01T17:08:29.795Z,9.15
2019-04-01T17:10:57.647Z,10.15
2019-04-01T17:13:24.855Z,9.90
2019-04-01T17:15:52.715Z,10.93
2019-04-01T17:18:20.418Z,11.10
2019-04-01T17:20:47.595Z,9.63
2019-04-01T17:23:14.829Z,9.28
2019-04-01T17:25:41.983Z,8.95
2019-04-01T17:28:09.767Z,8.85
2019-04-01T17:30:37.179Z,8.98
2019-04-01T17:33:04.394Z,9.53
2019-04-01T17:35:31.876Z,9.53
2019-04-01T17:37:59.274Z,8.73
2019-04-01T17:40:27.071Z,10.08
2019-04-01T17:42:54.732Z,9.98
2019-04-01T17:45:41.082Z,9.98
2019-04-01T17:48:08.339Z,11.40
2019-04-01T17:50:35.720Z,10.75
2019-04-01T17:53:05.375Z,9.65
2019-04-01T17:55:32.931Z,10.53
2019-04-01T17:58:00.103Z,10.25
2019-04-01T18:00:28.121Z,10.10
2019-04-01T18:02:55.660Z,10.25
2019-04-01T18:05:22.922Z,9.23
2019-04-01T18:07:50.935Z,9.23
2019-04-01T18:10:18.513Z,10.08
2019-04-01T18:12:46.474Z,9.98
2019-04-01T18:15:14.150Z,9.40
2019-04-01T18:17:41.654Z,8.73
2019-04-01T18:20:09.615Z,9.53
2019-04-01T18:22:37.036Z,9.28
2019-04-01T18:25:04.444Z,9.80
2019-04-01T18:27:32.278Z,9.85
2019-04-01T18:29:59.719Z,10.18
2019-04-01T18:32:27.342Z,8.78
2019-04-01T18:34:55.277Z,9.20
2019-04-01T18:37:24.020Z,10.72
2019-04-01T18:39:51.625Z,9.20
2019-04-01T18:42:18.853Z,8.20
2019-04-01T18:44:46.116Z,10.25
2019-04-01T18:47:13.322Z,10.40
2019-04-01T18:49:41.000Z,9.58
2019-04-01T18:52:09.279Z,10.18
2019-04-01T18:54:37.053Z,9.93
2019-04-01T18:57:04.788Z,10.50
2019-04-01T18:59:31.979Z,10.38
2019-04-01T19:01:59.385Z,10.32
2019-04-01T19:04:27.302Z,9.08
2019-04-01T19:06:54.796Z,9.30
2019-04-01T19:09:22.474Z,9.70
2019-04-01T19:12:03.019Z,9.38
2019-04-01T19:14:19.766Z,9.43
2019-04-01T19:16:46.935Z,10.10
2019-04-01T19:19:14.147Z,9.48
2019-04-01T19:21:41.324Z,9.35
2019-04-01T19:24:08.953Z,9.98
2019-04-01T19:26:36.134Z,10.15
2019-04-01T19:29:03.539Z,8.88
2019-04-01T19:31:30.768Z,9.28
2019-04-01T19:33:58.359Z,9.80
2019-04-01T19:36:25.811Z,9.18
2019-04-01T19:38:54.302Z,10.80
2019-04-01T19:41:21.929Z,9.63
2019-04-01T19:43:51.187Z,8.85
2019-04-01T19:46:18.679Z,8.55
2019-04-01T19:48:46.610Z,10.48
2019-04-01T19:51:13.813Z,9.05
2019-04-01T19:53:41.263Z,9.60
2019-04-01T19:56:08.442Z,9.68
2019-04-01T19:58:35.877Z,9.13
2019-04-01T20:01:03.160Z,9.33
2019-04-01T20:03:30.331Z,8.25
2019-04-01T20:05:57.821Z,10.03
2019-04-01T20:08:25.295Z,9.30
2019-04-01T20:10:52.999Z,9.28
2019-04-01T20:13:20.305Z,10.13
2019-04-01T20:15:47.729Z,10.63
2019-04-01T20:18:15.173Z,10.58
2019-04-01T20:20:42.400Z,9.35
2019-04-01T20:23:09.871Z,9.23
2019-04-01T20:25:37.847Z,9.10
2019-04-01T20:28:05.793Z,8.23
2019-04-01T20:30:32.982Z,8.78
2019-04-01T20:33:00.702Z,8.88
2019-04-01T20:35:28.717Z,9.18
2019-04-01T20:37:56.227Z,9.10
2019-04-01T20:40:24.275Z,7.92
2019-04-01T20:42:53.123Z,8.50
2019-04-01T20:45:20.331Z,8.75
2019-04-01T20:47:50.331Z,7.87
2019-04-01T20:50:17.467Z,6.85
2019-04-01T20:52:45.012Z,7.80
2019-04-01T20:55:13.501Z,8.25
2019-04-01T20:57:41.563Z,8.15
2019-04-01T21:00:09.529Z,8.25
2019-04-01T21:02:37.419Z,8.05
2019-04-01T21:05:05.695Z,6.87
2019-04-01T21:07:33.270Z,7.37
2019-04-01T21:10:00.698Z,7.75
2019-04-01T21:12:28.208Z,9.05
2019-04-01T21:14:56.142Z,8.23
2019-04-01T21:17:24.079Z,8.55
2019-04-01T21:19:52.136Z,8.40
2019-04-01T21:22:19.354Z,8.33
2019-04-01T21:24:46.839Z,7.95
2019-04-01T21:27:14.216Z,7.50
2019-04-01T21:29:41.468Z,7.65
2019-04-01T21:32:08.915Z,7.67
2019-04-01T21:34:36.183Z,8.70
2019-04-01T21:37:03.673Z,8.40
2019-04-01T21:39:30.895Z,9.20
2019-04-01T21:41:58.099Z,8.65
2019-04-01T21:44:25.804Z,8.53
2019-04-01T21:46:52.959Z,8.03
2019-04-01T21:49:20.154Z,8.25
2019-04-01T21:51:47.333Z,7.72
2019-04-01T21:54:14.950Z,8.08
2019-04-01T21:56:42.350Z,7.80
2019-04-01T21:59:09.785Z,7.72
2019-04-01T22:01:37.455Z,8.03
2019-04-01T22:04:04.646Z,8.53
2019-04-01T22:06:32.443Z,7.47
2019-04-01T22:08:59.674Z,7.45
2019-04-01T22:11:27.011Z,7.62
2019-04-01T22:13:55.142Z,7.58
2019-04-01T22:16:23.287Z,7.47
2019-04-01T22:18:50.731Z,7.92
2019-04-01T22:21:17.861Z,7.25
2019-04-01T22:23:45.147Z,7.83
2019-04-01T22:26:12.355Z,8.35
2019-04-01T22:28:39.558Z,7.62
2019-04-01T22:31:06.987Z,6.72
2019-04-01T22:33:34.169Z,8.10
2019-04-01T22:36:01.429Z,7.15
2019-04-01T22:38:29.150Z,7.42
2019-04-01T22:40:56.864Z,8.18
2019-04-01T22:43:25.306Z,7.45
2019-04-01T22:45:52.927Z,7.62
2019-04-01T22:48:20.115Z,8.13
2019-04-01T22:50:47.472Z,7.72
2019-04-01T22:53:14.694Z,8.60
2019-04-01T22:55:42.743Z,7.65
2019-04-01T22:58:10.175Z,7.85
2019-04-01T23:00:38.147Z,7.55
2019-04-01T23:03:05.568Z,7.75
2019-04-01T23:05:33.226Z,8.30
2019-04-01T23:08:02.203Z,7.75
2019-04-01T23:10:29.815Z,7.50
2019-04-01T23:12:57.017Z,6.75
2019-04-01T23:15:24.275Z,7.70
2019-04-01T23:17:51.414Z,7.85
2019-04-01T23:20:18.843Z,6.58
2019-04-01T23:22:46.303Z,7.33
2019-04-01T23:25:13.498Z,8.70
2019-04-01T23:27:40.671Z,7.45
2019-04-01T23:30:08.873Z,7.33
2019-04-01T23:32:36.362Z,7.95
2019-04-01T23:35:03.860Z,7.47
2019-04-01T23:37:31.257Z,7.33
2019-04-01T23:39:58.767Z,8.33
2019-04-01T23:42:26.254Z,8.13
2019-04-01T23:44:54.720Z,7.97
2019-04-01T23:47:21.903Z,7.83
2019-04-01T23:49:49.388Z,7.60
2019-04-01T23:52:16.826Z,7.28
2019-04-01T23:54:44.299Z,7.83
2019-04-01T23:57:11.518Z,8.50
2019-04-01T23:59:38.730Z,7.72
